sensor_id;sensor_type;location;lat;lon;timestamp;temperature;humidity
18721;DHT22;9489;50.948;3.114;2023-01-19T00:00:34;2.70;99.90
18721;DHT22;9489;50.948;3.114;2023-01-19T00:03:00;2.70;99.90
18721;DHT22;9489;50.948;3.114;2023-01-19T00:05:27;2.70;99.90
18721;DHT22;9489;50.948;3.114;2023-01-19T00:07:53;2.70;99.90
18721;DHT22;9489;50.948;3.114;2023-01-19T00:10:18;2.80;99.90
18721;DHT22;9489;50.948;3.114;2023-01-19T00:12:44;2.80;99.90
18721;DHT22;9489;50.948;3.114;2023-01-19T00:15:10;2.80;99.90
18721;DHT22;9489;50.948;3.114;2023-01-19T00:17:36;2.80;99.90
18721;DHT22;9489;50.948;3.114;2023-01-19T00:20:01;2.90;99.90
18721;DHT22;9489;50.948;3.114;2023-01-19T00:22:28;2.90;99.90
18721;DHT22;9489;50.948;3.114;2023-01-19T00:24:53;2.90;99.90
18721;DHT22;9489;50.948;3.114;2023-01-19T00:27:19;2.90;99.90
18721;DHT22;9489;50.948;3.114;2023-01-19T00:29:45;3.00;99.90
18721;DHT22;9489;50.948;3.114;2023-01-19T00:32:10;3.00;99.90
18721;DHT22;9489;50.948;3.114;2023-01-19T00:34:36;3.00;99.90
18721;DHT22;9489;50.948;3.114;2023-01-19T00:37:07;3.00;99.90
18721;DHT22;9489;50.948;3.114;2023-01-19T00:39:32;2.90;99.90
18721;DHT22;9489;50.948;3.114;2023-01-19T00:41:58;2.80;99.90
18721;DHT22;9489;50.948;3.114;2023-01-19T00:44:42;2.80;99.90
18721;DHT22;9489;50.948;3.114;2023-01-19T00:47:08;2.70;99.90
18721;DHT22;9489;50.948;3.114;2023-01-19T00:49:34;2.70;99.90
18721;DHT22;9489;50.948;3.114;2023-01-19T00:51:59;2.70;99.90
18721;DHT22;9489;50.948;3.114;2023-01-19T00:54:25;2.70;99.90
18721;DHT22;9489;50.948;3.114;2023-01-19T00:56:51;2.70;99.90
18721;DHT22;9489;50.948;3.114;2023-01-19T00:59:16;2.70;99.90
18721;DHT22;9489;50.948;3.114;2023-01-19T01:01:42;2.60;99.90
18721;DHT22;9489;50.948;3.114;2023-01-19T01:04:08;2.60;99.90
18721;DHT22;9489;50.948;3.114;2023-01-19T01:06:33;2.70;99.90
18721;DHT22;9489;50.948;3.114;2023-01-19T01:08:59;2.60;99.90
18721;DHT22;9489;50.948;3.114;2023-01-19T01:11:24;2.70;99.90
18721;DHT22;9489;50.948;3.114;2023-01-19T01:13:50;2.70;99.90
18721;DHT22;9489;50.948;3.114;2023-01-19T01:16:16;2.80;99.90
18721;DHT22;9489;50.948;3.114;2023-01-19T01:18:42;2.80;99.90
18721;DHT22;9489;50.948;3.114;2023-01-19T01:21:09;2.80;99.90
18721;DHT22;9489;50.948;3.114;2023-01-19T01:23:36;2.80;99.90
18721;DHT22;9489;50.948;3.114;2023-01-19T01:26:01;2.90;99.90
18721;DHT22;9489;50.948;3.114;2023-01-19T01:28:27;2.90;99.90
18721;DHT22;9489;50.948;3.114;2023-01-19T01:30:54;2.90;99.90
18721;DHT22;9489;50.948;3.114;2023-01-19T01:33:20;3.00;99.90
18721;DHT22;9489;50.948;3.114;2023-01-19T01:35:47;3.00;99.90
18721;DHT22;9489;50.948;3.114;2023-01-19T01:38:13;3.00;99.90
18721;DHT22;9489;50.948;3.114;2023-01-19T01:40:40;3.10;99.90
18721;DHT22;9489;50.948;3.114;2023-01-19T01:43:14;3.10;99.90
18721;DHT22;9489;50.948;3.114;2023-01-19T01:45:40;3.10;99.90
18721;DHT22;9489;50.948;3.114;2023-01-19T01:50:35;3.10;99.90
18721;DHT22;9489;50.948;3.114;2023-01-19T01:53:06;3.10;99.90
18721;DHT22;9489;50.948;3.114;2023-01-19T01:55:42;3.20;99.90
18721;DHT22;9489;50.948;3.114;2023-01-19T01:58:10;3.10;99.90
18721;DHT22;9489;50.948;3.114;2023-01-19T02:00:38;3.00;99.90
18721;DHT22;9489;50.948;3.114;2023-01-19T02:03:23;3.00;99.90
18721;DHT22;9489;50.948;3.114;2023-01-19T02:05:50;2.90;99.90
18721;DHT22;9489;50.948;3.114;2023-01-19T02:08:17;2.90;99.90
18721;DHT22;9489;50.948;3.114;2023-01-19T02:11:03;2.90;99.90
18721;DHT22;9489;50.948;3.114;2023-01-19T02:13:49;2.90;99.90
18721;DHT22;9489;50.948;3.114;2023-01-19T02:16:15;2.90;99.90
18721;DHT22;9489;50.948;3.114;2023-01-19T02:18:42;3.00;99.90
18721;DHT22;9489;50.948;3.114;2023-01-19T02:21:23;2.90;99.90
18721;DHT22;9489;50.948;3.114;2023-01-19T02:23:57;3.00;99.90
18721;DHT22;9489;50.948;3.114;2023-01-19T02:26:42;3.00;99.90
18721;DHT22;9489;50.948;3.114;2023-01-19T02:29:15;3.00;99.90
18721;DHT22;9489;50.948;3.114;2023-01-19T02:31:41;3.10;99.90
18721;DHT22;9489;50.948;3.114;2023-01-19T02:34:10;3.10;99.90
18721;DHT22;9489;50.948;3.114;2023-01-19T02:36:37;3.20;99.90
18721;DHT22;9489;50.948;3.114;2023-01-19T02:39:04;3.20;99.90
18721;DHT22;9489;50.948;3.114;2023-01-19T02:41:35;3.20;99.90
18721;DHT22;9489;50.948;3.114;2023-01-19T02:44:03;3.20;99.90
18721;DHT22;9489;50.948;3.114;2023-01-19T02:46:31;3.20;99.90
18721;DHT22;9489;50.948;3.114;2023-01-19T02:48:58;3.20;99.90
18721;DHT22;9489;50.948;3.114;2023-01-19T02:51:24;3.10;99.90
18721;DHT22;9489;50.948;3.114;2023-01-19T02:59:33;3.10;99.90
18721;DHT22;9489;50.948;3.114;2023-01-19T03:15:51;2.90;99.90
18721;DHT22;9489;50.948;3.114;2023-01-19T03:18:21;2.80;99.90
18721;DHT22;9489;50.948;3.114;2023-01-19T03:20:50;2.80;99.90
18721;DHT22;9489;50.948;3.114;2023-01-19T03:23:19;2.80;99.90
18721;DHT22;9489;50.948;3.114;2023-01-19T03:25:47;2.70;99.90
18721;DHT22;9489;50.948;3.114;2023-01-19T03:28:15;2.80;99.90
18721;DHT22;9489;50.948;3.114;2023-01-19T03:30:48;2.80;99.90
18721;DHT22;9489;50.948;3.114;2023-01-19T03:33:21;2.80;99.90
18721;DHT22;9489;50.948;3.114;2023-01-19T03:35:50;2.80;99.90
18721;DHT22;9489;50.948;3.114;2023-01-19T03:38:22;2.90;99.90
18721;DHT22;9489;50.948;3.114;2023-01-19T03:40:54;2.90;99.90
18721;DHT22;9489;50.948;3.114;2023-01-19T03:43:20;2.90;99.90
18721;DHT22;9489;50.948;3.114;2023-01-19T03:45:47;2.90;99.90
18721;DHT22;9489;50.948;3.114;2023-01-19T03:48:13;2.90;99.90
18721;DHT22;9489;50.948;3.114;2023-01-19T03:50:39;2.90;99.90
18721;DHT22;9489;50.948;3.114;2023-01-19T03:53:07;2.90;99.90
18721;DHT22;9489;50.948;3.114;2023-01-19T03:55:34;2.90;99.90
18721;DHT22;9489;50.948;3.114;2023-01-19T03:58:00;3.00;99.90
18721;DHT22;9489;50.948;3.114;2023-01-19T04:00:26;2.90;99.90
18721;DHT22;9489;50.948;3.114;2023-01-19T04:02:52;2.90;99.90
18721;DHT22;9489;50.948;3.114;2023-01-19T04:05:17;2.80;99.90
18721;DHT22;9489;50.948;3.114;2023-01-19T04:07:43;2.90;99.90
18721;DHT22;9489;50.948;3.114;2023-01-19T04:10:09;2.90;99.90
18721;DHT22;9489;50.948;3.114;2023-01-19T04:12:37;2.90;99.90
18721;DHT22;9489;50.948;3.114;2023-01-19T04:15:05;2.90;99.90
18721;DHT22;9489;50.948;3.114;2023-01-19T04:17:31;3.00;99.90
18721;DHT22;9489;50.948;3.114;2023-01-19T04:19:57;2.90;99.90
18721;DHT22;9489;50.948;3.114;2023-01-19T04:22:22;2.90;99.90
18721;DHT22;9489;50.948;3.114;2023-01-19T04:24:48;2.90;99.90
18721;DHT22;9489;50.948;3.114;2023-01-19T04:27:13;2.90;99.90
18721;DHT22;9489;50.948;3.114;2023-01-19T04:29:41;2.90;99.90
18721;DHT22;9489;50.948;3.114;2023-01-19T04:32:07;2.90;99.90
18721;DHT22;9489;50.948;3.114;2023-01-19T04:34:32;3.00;99.90
18721;DHT22;9489;50.948;3.114;2023-01-19T04:36:58;3.00;99.90
18721;DHT22;9489;50.948;3.114;2023-01-19T04:39:24;3.00;99.90
18721;DHT22;9489;50.948;3.114;2023-01-19T04:41:50;3.00;99.90
18721;DHT22;9489;50.948;3.114;2023-01-19T04:44:18;3.00;99.90
18721;DHT22;9489;50.948;3.114;2023-01-19T04:46:44;3.00;99.90
18721;DHT22;9489;50.948;3.114;2023-01-19T04:49:10;3.00;99.90
18721;DHT22;9489;50.948;3.114;2023-01-19T04:51:36;3.00;99.90
18721;DHT22;9489;50.948;3.114;2023-01-19T04:54:02;3.00;99.90
18721;DHT22;9489;50.948;3.114;2023-01-19T04:56:28;3.00;99.90
18721;DHT22;9489;50.948;3.114;2023-01-19T04:58:54;3.00;99.90
18721;DHT22;9489;50.948;3.114;2023-01-19T05:01:19;3.00;99.90
18721;DHT22;9489;50.948;3.114;2023-01-19T05:03:45;3.00;99.90
18721;DHT22;9489;50.948;3.114;2023-01-19T05:06:11;3.00;99.90
18721;DHT22;9489;50.948;3.114;2023-01-19T05:08:37;3.00;99.90
18721;DHT22;9489;50.948;3.114;2023-01-19T05:11:02;3.10;99.90
18721;DHT22;9489;50.948;3.114;2023-01-19T05:13:28;3.10;99.90
18721;DHT22;9489;50.948;3.114;2023-01-19T05:15:54;3.10;99.90
18721;DHT22;9489;50.948;3.114;2023-01-19T05:18:19;3.10;99.90
18721;DHT22;9489;50.948;3.114;2023-01-19T05:20:45;3.10;99.90
18721;DHT22;9489;50.948;3.114;2023-01-19T05:23:11;3.00;99.90
18721;DHT22;9489;50.948;3.114;2023-01-19T05:25:36;3.00;99.90
18721;DHT22;9489;50.948;3.114;2023-01-19T05:28:02;2.90;99.90
18721;DHT22;9489;50.948;3.114;2023-01-19T05:30:28;2.90;99.90
18721;DHT22;9489;50.948;3.114;2023-01-19T05:32:54;2.80;99.90
18721;DHT22;9489;50.948;3.114;2023-01-19T05:35:19;2.70;99.90
18721;DHT22;9489;50.948;3.114;2023-01-19T05:37:45;2.70;99.90
18721;DHT22;9489;50.948;3.114;2023-01-19T05:40:11;2.70;99.90
18721;DHT22;9489;50.948;3.114;2023-01-19T05:42:37;2.70;99.90
18721;DHT22;9489;50.948;3.114;2023-01-19T05:45:03;2.70;99.90
18721;DHT22;9489;50.948;3.114;2023-01-19T05:47:32;2.60;99.90
18721;DHT22;9489;50.948;3.114;2023-01-19T05:49:58;2.60;99.90
18721;DHT22;9489;50.948;3.114;2023-01-19T05:52:24;2.50;99.90
18721;DHT22;9489;50.948;3.114;2023-01-19T05:54:50;2.50;99.90
18721;DHT22;9489;50.948;3.114;2023-01-19T05:57:17;2.50;99.90
18721;DHT22;9489;50.948;3.114;2023-01-19T05:59:43;2.50;99.90
18721;DHT22;9489;50.948;3.114;2023-01-19T06:02:10;2.50;99.90
18721;DHT22;9489;50.948;3.114;2023-01-19T06:04:35;2.40;99.90
18721;DHT22;9489;50.948;3.114;2023-01-19T06:07:01;2.50;99.90
18721;DHT22;9489;50.948;3.114;2023-01-19T06:09:34;2.50;99.90
18721;DHT22;9489;50.948;3.114;2023-01-19T06:11:59;2.50;99.90
18721;DHT22;9489;50.948;3.114;2023-01-19T06:14:25;2.50;99.90
18721;DHT22;9489;50.948;3.114;2023-01-19T06:16:51;2.50;99.90
18721;DHT22;9489;50.948;3.114;2023-01-19T06:19:17;2.60;99.90
18721;DHT22;9489;50.948;3.114;2023-01-19T06:21:47;2.50;99.90
18721;DHT22;9489;50.948;3.114;2023-01-19T06:24:14;2.50;99.90
18721;DHT22;9489;50.948;3.114;2023-01-19T06:26:40;2.50;99.90
18721;DHT22;9489;50.948;3.114;2023-01-19T06:29:12;2.50;99.90
18721;DHT22;9489;50.948;3.114;2023-01-19T06:31:39;2.40;99.90
18721;DHT22;9489;50.948;3.114;2023-01-19T06:34:05;2.40;99.90
18721;DHT22;9489;50.948;3.114;2023-01-19T06:36:30;2.40;99.90
18721;DHT22;9489;50.948;3.114;2023-01-19T06:38:56;2.40;99.90
18721;DHT22;9489;50.948;3.114;2023-01-19T06:41:21;2.30;99.90
18721;DHT22;9489;50.948;3.114;2023-01-19T06:43:47;2.20;99.90
18721;DHT22;9489;50.948;3.114;2023-01-19T06:46:12;2.20;99.90
18721;DHT22;9489;50.948;3.114;2023-01-19T06:48:38;2.20;99.90
18721;DHT22;9489;50.948;3.114;2023-01-19T06:51:04;2.10;99.90
18721;DHT22;9489;50.948;3.114;2023-01-19T06:53:31;2.10;99.90
18721;DHT22;9489;50.948;3.114;2023-01-19T06:55:58;2.10;99.90
18721;DHT22;9489;50.948;3.114;2023-01-19T06:58:25;2.00;99.90
18721;DHT22;9489;50.948;3.114;2023-01-19T07:00:51;2.10;99.90
18721;DHT22;9489;50.948;3.114;2023-01-19T07:03:18;2.00;99.90
18721;DHT22;9489;50.948;3.114;2023-01-19T07:05:44;2.10;99.90
18721;DHT22;9489;50.948;3.114;2023-01-19T07:08:10;2.10;99.90
18721;DHT22;9489;50.948;3.114;2023-01-19T07:10:35;2.00;99.90
18721;DHT22;9489;50.948;3.114;2023-01-19T07:13:01;2.10;99.90
18721;DHT22;9489;50.948;3.114;2023-01-19T07:15:27;2.10;99.90
18721;DHT22;9489;50.948;3.114;2023-01-19T07:17:57;2.10;99.90
18721;DHT22;9489;50.948;3.114;2023-01-19T07:20:23;2.10;99.90
18721;DHT22;9489;50.948;3.114;2023-01-19T07:22:54;2.10;99.90
18721;DHT22;9489;50.948;3.114;2023-01-19T07:25:20;2.00;99.90
18721;DHT22;9489;50.948;3.114;2023-01-19T07:27:46;2.10;99.90
18721;DHT22;9489;50.948;3.114;2023-01-19T07:30:12;2.00;99.90
18721;DHT22;9489;50.948;3.114;2023-01-19T07:32:40;2.10;99.90
18721;DHT22;9489;50.948;3.114;2023-01-19T07:35:08;2.10;99.90
18721;DHT22;9489;50.948;3.114;2023-01-19T07:37:33;2.10;99.90
18721;DHT22;9489;50.948;3.114;2023-01-19T07:39:59;2.10;99.90
18721;DHT22;9489;50.948;3.114;2023-01-19T07:42:25;2.10;99.90
18721;DHT22;9489;50.948;3.114;2023-01-19T07:44:50;2.10;99.90
18721;DHT22;9489;50.948;3.114;2023-01-19T07:47:16;2.10;99.90
18721;DHT22;9489;50.948;3.114;2023-01-19T07:49:42;2.10;99.90
18721;DHT22;9489;50.948;3.114;2023-01-19T07:52:08;2.20;99.90
18721;DHT22;9489;50.948;3.114;2023-01-19T07:54:34;2.20;99.90
18721;DHT22;9489;50.948;3.114;2023-01-19T07:56:59;2.20;99.90
18721;DHT22;9489;50.948;3.114;2023-01-19T07:59:26;2.20;99.90
18721;DHT22;9489;50.948;3.114;2023-01-19T08:01:52;2.30;99.90
18721;DHT22;9489;50.948;3.114;2023-01-19T08:04:19;2.30;99.90
18721;DHT22;9489;50.948;3.114;2023-01-19T08:06:45;2.40;99.90
18721;DHT22;9489;50.948;3.114;2023-01-19T08:09:12;2.40;99.90
18721;DHT22;9489;50.948;3.114;2023-01-19T08:11:37;2.50;99.90
18721;DHT22;9489;50.948;3.114;2023-01-19T08:14:03;2.70;99.90
18721;DHT22;9489;50.948;3.114;2023-01-19T08:16:29;2.80;99.90
18721;DHT22;9489;50.948;3.114;2023-01-19T08:18:55;2.80;99.90
18721;DHT22;9489;50.948;3.114;2023-01-19T08:21:20;2.90;99.90
18721;DHT22;9489;50.948;3.114;2023-01-19T08:23:55;3.00;99.90
18721;DHT22;9489;50.948;3.114;2023-01-19T08:26:30;3.00;99.90
18721;DHT22;9489;50.948;3.114;2023-01-19T08:28:58;3.10;99.90
18721;DHT22;9489;50.948;3.114;2023-01-19T08:31:25;3.20;99.90
18721;DHT22;9489;50.948;3.114;2023-01-19T08:33:51;3.10;99.90
18721;DHT22;9489;50.948;3.114;2023-01-19T08:36:16;3.10;99.90
18721;DHT22;9489;50.948;3.114;2023-01-19T08:38:44;3.10;99.90
18721;DHT22;9489;50.948;3.114;2023-01-19T08:41:10;3.10;99.90
18721;DHT22;9489;50.948;3.114;2023-01-19T08:43:36;3.30;99.90
18721;DHT22;9489;50.948;3.114;2023-01-19T08:46:05;3.80;99.90
18721;DHT22;9489;50.948;3.114;2023-01-19T08:48:31;4.40;99.90
18721;DHT22;9489;50.948;3.114;2023-01-19T08:50:56;5.10;99.90
18721;DHT22;9489;50.948;3.114;2023-01-19T08:53:23;5.50;99.90
18721;DHT22;9489;50.948;3.114;2023-01-19T08:55:56;6.10;99.90
18721;DHT22;9489;50.948;3.114;2023-01-19T08:58:24;6.40;99.90
18721;DHT22;9489;50.948;3.114;2023-01-19T09:00:50;6.90;99.90
18721;DHT22;9489;50.948;3.114;2023-01-19T09:03:17;7.40;99.90
18721;DHT22;9489;50.948;3.114;2023-01-19T09:05:44;7.70;99.90
18721;DHT22;9489;50.948;3.114;2023-01-19T09:08:12;8.00;99.90
18721;DHT22;9489;50.948;3.114;2023-01-19T09:10:42;8.20;99.90
18721;DHT22;9489;50.948;3.114;2023-01-19T09:13:10;8.20;99.90
18721;DHT22;9489;50.948;3.114;2023-01-19T09:15:40;8.40;99.90
18721;DHT22;9489;50.948;3.114;2023-01-19T09:18:14;8.70;99.90
18721;DHT22;9489;50.948;3.114;2023-01-19T09:20:41;8.80;99.90
18721;DHT22;9489;50.948;3.114;2023-01-19T09:23:11;9.00;99.90
18721;DHT22;9489;50.948;3.114;2023-01-19T09:25:38;9.10;99.90
18721;DHT22;9489;50.948;3.114;2023-01-19T09:28:06;9.50;99.90
18721;DHT22;9489;50.948;3.114;2023-01-19T09:30:33;9.80;99.90
18721;DHT22;9489;50.948;3.114;2023-01-19T09:33:06;10.10;99.90
18721;DHT22;9489;50.948;3.114;2023-01-19T09:35:33;9.90;99.90
18721;DHT22;9489;50.948;3.114;2023-01-19T09:37:59;10.10;99.90
18721;DHT22;9489;50.948;3.114;2023-01-19T09:40:25;9.70;99.90
18721;DHT22;9489;50.948;3.114;2023-01-19T09:42:56;9.80;99.90
18721;DHT22;9489;50.948;3.114;2023-01-19T09:45:43;9.80;99.90
18721;DHT22;9489;50.948;3.114;2023-01-19T09:48:38;10.20;99.90
18721;DHT22;9489;50.948;3.114;2023-01-19T09:51:30;10.30;99.90
18721;DHT22;9489;50.948;3.114;2023-01-19T09:56:41;10.30;99.90
18721;DHT22;9489;50.948;3.114;2023-01-19T09:59:22;10.10;99.90
18721;DHT22;9489;50.948;3.114;2023-01-19T10:04:35;10.90;99.90
18721;DHT22;9489;50.948;3.114;2023-01-19T10:09:55;11.00;99.90
18721;DHT22;9489;50.948;3.114;2023-01-19T10:20:39;12.00;99.90
18721;DHT22;9489;50.948;3.114;2023-01-19T10:23:20;11.90;99.90
18721;DHT22;9489;50.948;3.114;2023-01-19T10:25:49;12.10;99.90
18721;DHT22;9489;50.948;3.114;2023-01-19T10:28:18;12.40;99.90
18721;DHT22;9489;50.948;3.114;2023-01-19T10:30:47;12.50;99.90
18721;DHT22;9489;50.948;3.114;2023-01-19T10:33:13;12.30;99.90
18721;DHT22;9489;50.948;3.114;2023-01-19T10:35:39;12.80;99.90
18721;DHT22;9489;50.948;3.114;2023-01-19T10:38:05;12.70;99.90
18721;DHT22;9489;50.948;3.114;2023-01-19T10:40:36;12.20;99.90
18721;DHT22;9489;50.948;3.114;2023-01-19T10:43:39;11.80;99.90
18721;DHT22;9489;50.948;3.114;2023-01-19T10:46:31;12.00;99.90
18721;DHT22;9489;50.948;3.114;2023-01-19T10:48:59;11.70;99.90
18721;DHT22;9489;50.948;3.114;2023-01-19T10:51:24;12.10;99.90
18721;DHT22;9489;50.948;3.114;2023-01-19T10:54:11;12.30;99.90
18721;DHT22;9489;50.948;3.114;2023-01-19T10:56:37;12.90;99.90
18721;DHT22;9489;50.948;3.114;2023-01-19T10:59:05;13.50;99.90
18721;DHT22;9489;50.948;3.114;2023-01-19T11:01:32;13.20;99.90
18721;DHT22;9489;50.948;3.114;2023-01-19T11:04:20;13.10;99.90
18721;DHT22;9489;50.948;3.114;2023-01-19T11:06:46;13.00;99.90
18721;DHT22;9489;50.948;3.114;2023-01-19T11:09:18;13.30;99.90
18721;DHT22;9489;50.948;3.114;2023-01-19T11:11:49;13.30;99.90
18721;DHT22;9489;50.948;3.114;2023-01-19T11:14:23;13.00;99.90
18721;DHT22;9489;50.948;3.114;2023-01-19T11:16:54;12.80;99.90
18721;DHT22;9489;50.948;3.114;2023-01-19T11:19:25;12.90;99.90
18721;DHT22;9489;50.948;3.114;2023-01-19T11:21:52;12.80;99.90
18721;DHT22;9489;50.948;3.114;2023-01-19T11:24:31;12.70;99.90
18721;DHT22;9489;50.948;3.114;2023-01-19T11:26:57;12.50;99.90
18721;DHT22;9489;50.948;3.114;2023-01-19T11:29:27;13.30;99.90
18721;DHT22;9489;50.948;3.114;2023-01-19T11:31:54;13.90;99.90
18721;DHT22;9489;50.948;3.114;2023-01-19T11:34:31;14.30;99.90
18721;DHT22;9489;50.948;3.114;2023-01-19T11:37:02;14.80;99.90
18721;DHT22;9489;50.948;3.114;2023-01-19T11:39:31;14.90;99.90
18721;DHT22;9489;50.948;3.114;2023-01-19T11:42:03;14.60;99.90
18721;DHT22;9489;50.948;3.114;2023-01-19T11:44:31;14.20;99.90
18721;DHT22;9489;50.948;3.114;2023-01-19T11:47:00;14.30;99.90
18721;DHT22;9489;50.948;3.114;2023-01-19T11:49:42;14.40;99.90
18721;DHT22;9489;50.948;3.114;2023-01-19T11:52:17;13.90;99.90
18721;DHT22;9489;50.948;3.114;2023-01-19T11:54:53;13.50;99.90
18721;DHT22;9489;50.948;3.114;2023-01-19T11:57:20;13.10;99.90
18721;DHT22;9489;50.948;3.114;2023-01-19T11:59:46;13.30;99.90
18721;DHT22;9489;50.948;3.114;2023-01-19T12:02:26;13.20;99.90
18721;DHT22;9489;50.948;3.114;2023-01-19T12:04:56;13.10;99.90
18721;DHT22;9489;50.948;3.114;2023-01-19T12:07:28;12.80;99.90
18721;DHT22;9489;50.948;3.114;2023-01-19T12:10:14;13.10;99.90
18721;DHT22;9489;50.948;3.114;2023-01-19T12:12:43;12.60;99.90
18721;DHT22;9489;50.948;3.114;2023-01-19T12:15:19;12.70;99.90
18721;DHT22;9489;50.948;3.114;2023-01-19T12:17:52;12.80;99.90
18721;DHT22;9489;50.948;3.114;2023-01-19T12:22:58;12.50;99.90
18721;DHT22;9489;50.948;3.114;2023-01-19T12:28:28;12.20;99.90
18721;DHT22;9489;50.948;3.114;2023-01-19T12:30:57;12.60;99.90
18721;DHT22;9489;50.948;3.114;2023-01-19T12:33:33;13.20;99.90
18721;DHT22;9489;50.948;3.114;2023-01-19T12:36:05;13.60;99.90
18721;DHT22;9489;50.948;3.114;2023-01-19T12:38:49;13.90;99.90
18721;DHT22;9489;50.948;3.114;2023-01-19T12:41:22;14.00;99.90
18721;DHT22;9489;50.948;3.114;2023-01-19T12:46:33;12.80;99.90
18721;DHT22;9489;50.948;3.114;2023-01-19T12:51:30;10.40;99.90
18721;DHT22;9489;50.948;3.114;2023-01-19T12:53:57;10.00;1.00
18721;DHT22;9489;50.948;3.114;2023-01-19T12:56:32;9.40;99.90
18721;DHT22;9489;50.948;3.114;2023-01-19T12:58:58;8.80;1.00
18721;DHT22;9489;50.948;3.114;2023-01-19T13:01:24;8.20;1.00
18721;DHT22;9489;50.948;3.114;2023-01-19T13:04:03;8.00;1.00
18721;DHT22;9489;50.948;3.114;2023-01-19T13:09:36;7.70;1.00
18721;DHT22;9489;50.948;3.114;2023-01-19T13:12:21;7.50;1.00
18721;DHT22;9489;50.948;3.114;2023-01-19T13:14:47;7.40;1.00
18721;DHT22;9489;50.948;3.114;2023-01-19T13:17:20;7.30;1.00
18721;DHT22;9489;50.948;3.114;2023-01-19T13:19:51;7.10;1.00
18721;DHT22;9489;50.948;3.114;2023-01-19T13:25:30;6.90;1.00
18721;DHT22;9489;50.948;3.114;2023-01-19T13:27:58;6.70;1.00
18721;DHT22;9489;50.948;3.114;2023-01-19T13:30:26;6.80;1.00
18721;DHT22;9489;50.948;3.114;2023-01-19T13:32:55;6.90;1.00
18721;DHT22;9489;50.948;3.114;2023-01-19T13:35:22;6.80;1.00
18721;DHT22;9489;50.948;3.114;2023-01-19T13:37:49;6.60;1.00
18721;DHT22;9489;50.948;3.114;2023-01-19T13:40:22;6.60;1.00
18721;DHT22;9489;50.948;3.114;2023-01-19T13:42:50;6.70;1.00
18721;DHT22;9489;50.948;3.114;2023-01-19T13:45:32;6.60;1.00
18721;DHT22;9489;50.948;3.114;2023-01-19T13:48:04;6.80;1.00
18721;DHT22;9489;50.948;3.114;2023-01-19T13:50:32;6.80;1.00
18721;DHT22;9489;50.948;3.114;2023-01-19T13:52:58;6.90;1.00
18721;DHT22;9489;50.948;3.114;2023-01-19T13:55:29;6.90;1.00
18721;DHT22;9489;50.948;3.114;2023-01-19T13:57:55;6.90;1.00
18721;DHT22;9489;50.948;3.114;2023-01-19T14:00:23;6.90;1.00
18721;DHT22;9489;50.948;3.114;2023-01-19T14:05:36;6.70;1.00
18721;DHT22;9489;50.948;3.114;2023-01-19T14:15:43;6.70;1.00
18721;DHT22;9489;50.948;3.114;2023-01-19T14:18:09;6.70;1.00
18721;DHT22;9489;50.948;3.114;2023-01-19T14:20:36;6.50;1.00
18721;DHT22;9489;50.948;3.114;2023-01-19T14:23:03;6.60;1.00
18721;DHT22;9489;50.948;3.114;2023-01-19T14:25:34;6.50;1.00
18721;DHT22;9489;50.948;3.114;2023-01-19T14:30:59;6.30;1.00
18721;DHT22;9489;50.948;3.114;2023-01-19T14:33:42;6.20;1.00
18721;DHT22;9489;50.948;3.114;2023-01-19T14:38:43;6.30;1.00
18721;DHT22;9489;50.948;3.114;2023-01-19T14:41:09;6.20;99.90
18721;DHT22;9489;50.948;3.114;2023-01-19T14:43:36;6.20;99.90
18721;DHT22;9489;50.948;3.114;2023-01-19T14:46:01;6.30;99.90
18721;DHT22;9489;50.948;3.114;2023-01-19T14:48:29;6.40;99.90
18721;DHT22;9489;50.948;3.114;2023-01-19T14:51:03;6.40;99.90
18721;DHT22;9489;50.948;3.114;2023-01-19T14:53:35;6.40;99.90
18721;DHT22;9489;50.948;3.114;2023-01-19T14:56:04;6.40;99.90
18721;DHT22;9489;50.948;3.114;2023-01-19T14:58:32;6.40;99.90
18721;DHT22;9489;50.948;3.114;2023-01-19T15:00:58;6.30;99.90
18721;DHT22;9489;50.948;3.114;2023-01-19T15:03:25;6.20;99.90
18721;DHT22;9489;50.948;3.114;2023-01-19T15:05:52;6.20;99.90
18721;DHT22;9489;50.948;3.114;2023-01-19T15:08:30;6.10;99.90
18721;DHT22;9489;50.948;3.114;2023-01-19T15:11:00;6.10;99.90
18721;DHT22;9489;50.948;3.114;2023-01-19T15:13:27;6.10;99.90
18721;DHT22;9489;50.948;3.114;2023-01-19T15:15:53;6.10;99.90
18721;DHT22;9489;50.948;3.114;2023-01-19T15:18:22;6.10;99.90
18721;DHT22;9489;50.948;3.114;2023-01-19T15:20:49;6.00;99.90
18721;DHT22;9489;50.948;3.114;2023-01-19T15:23:15;6.00;99.90
18721;DHT22;9489;50.948;3.114;2023-01-19T15:25:41;6.00;99.90
18721;DHT22;9489;50.948;3.114;2023-01-19T15:28:16;6.00;99.90
18721;DHT22;9489;50.948;3.114;2023-01-19T15:30:42;5.90;99.90
18721;DHT22;9489;50.948;3.114;2023-01-19T15:33:28;5.90;99.90
18721;DHT22;9489;50.948;3.114;2023-01-19T15:35:57;5.80;99.90
18721;DHT22;9489;50.948;3.114;2023-01-19T15:38:23;5.80;99.90
18721;DHT22;9489;50.948;3.114;2023-01-19T15:40:48;5.70;99.90
18721;DHT22;9489;50.948;3.114;2023-01-19T15:43:15;5.60;99.90
18721;DHT22;9489;50.948;3.114;2023-01-19T15:45:55;5.50;99.90
18721;DHT22;9489;50.948;3.114;2023-01-19T15:48:23;5.50;99.90
18721;DHT22;9489;50.948;3.114;2023-01-19T15:50:50;5.40;99.90
18721;DHT22;9489;50.948;3.114;2023-01-19T15:53:18;5.30;99.90
18721;DHT22;9489;50.948;3.114;2023-01-19T15:55:48;5.30;99.90
18721;DHT22;9489;50.948;3.114;2023-01-19T15:58:13;5.30;99.90
18721;DHT22;9489;50.948;3.114;2023-01-19T16:00:39;5.20;99.90
18721;DHT22;9489;50.948;3.114;2023-01-19T16:03:05;5.10;99.90
18721;DHT22;9489;50.948;3.114;2023-01-19T16:05:31;5.10;99.90
18721;DHT22;9489;50.948;3.114;2023-01-19T16:07:57;5.00;99.90
18721;DHT22;9489;50.948;3.114;2023-01-19T16:10:22;5.00;99.90
18721;DHT22;9489;50.948;3.114;2023-01-19T16:12:48;4.90;99.90
18721;DHT22;9489;50.948;3.114;2023-01-19T16:15:14;4.90;99.90
18721;DHT22;9489;50.948;3.114;2023-01-19T16:17:40;4.90;99.90
18721;DHT22;9489;50.948;3.114;2023-01-19T16:20:07;4.80;99.90
18721;DHT22;9489;50.948;3.114;2023-01-19T16:22:33;4.70;99.90
18721;DHT22;9489;50.948;3.114;2023-01-19T16:24:59;4.70;99.90
18721;DHT22;9489;50.948;3.114;2023-01-19T16:27:25;4.70;99.90
18721;DHT22;9489;50.948;3.114;2023-01-19T16:29:50;4.60;99.90
18721;DHT22;9489;50.948;3.114;2023-01-19T16:32:16;4.50;99.90
18721;DHT22;9489;50.948;3.114;2023-01-19T16:34:42;4.50;99.90
18721;DHT22;9489;50.948;3.114;2023-01-19T16:37:07;4.50;99.90
18721;DHT22;9489;50.948;3.114;2023-01-19T16:39:33;4.40;99.90
18721;DHT22;9489;50.948;3.114;2023-01-19T16:41:59;4.40;99.90
18721;DHT22;9489;50.948;3.114;2023-01-19T16:44:24;4.30;99.90
18721;DHT22;9489;50.948;3.114;2023-01-19T16:46:50;4.30;99.90
18721;DHT22;9489;50.948;3.114;2023-01-19T16:49:18;4.20;99.90
18721;DHT22;9489;50.948;3.114;2023-01-19T16:51:44;4.10;99.90
18721;DHT22;9489;50.948;3.114;2023-01-19T16:54:17;4.10;99.90
18721;DHT22;9489;50.948;3.114;2023-01-19T16:56:44;4.00;99.90
18721;DHT22;9489;50.948;3.114;2023-01-19T16:59:13;4.00;99.90
18721;DHT22;9489;50.948;3.114;2023-01-19T17:01:39;3.90;99.90
18721;DHT22;9489;50.948;3.114;2023-01-19T17:04:07;3.80;99.90
18721;DHT22;9489;50.948;3.114;2023-01-19T17:06:33;3.70;99.90
18721;DHT22;9489;50.948;3.114;2023-01-19T17:08:59;3.60;99.90
18721;DHT22;9489;50.948;3.114;2023-01-19T17:11:30;3.60;99.90
18721;DHT22;9489;50.948;3.114;2023-01-19T17:13:58;3.50;99.90
18721;DHT22;9489;50.948;3.114;2023-01-19T17:16:25;3.40;99.90
18721;DHT22;9489;50.948;3.114;2023-01-19T17:18:52;3.30;99.90